sensor_id;sensor_type;location;lat;lon;timestamp;pressure;altitude;pressure_sealevel;temperature
49154;BMP280;49455;52.252;9.124;2022-08-03T00:02:30;99527.88;;;21.75
49154;BMP280;49455;52.252;9.124;2022-08-03T00:07:31;99517.94;;;21.87
49154;BMP280;49455;52.252;9.124;2022-08-03T00:12:31;99515.38;;;21.84
49154;BMP280;49455;52.252;9.124;2022-08-03T06:21:36;99484.72;;;23.30
49154;BMP280;49455;52.252;9.124;2022-08-03T06:26:36;99489.13;;;23.62
49154;BMP280;49455;52.252;9.124;2022-08-03T06:31:36;99492.06;;;23.82
49154;BMP280;49455;52.252;9.124;2022-08-03T06:36:37;99494.81;;;23.77
49154;BMP280;49455;52.252;9.124;2022-08-03T06:41:37;99496.50;;;23.80
49154;BMP280;49455;52.252;9.124;2022-08-03T06:46:41;99508.56;;;23.88
49154;BMP280;49455;52.252;9.124;2022-08-03T06:51:42;99505.44;;;24.04
49154;BMP280;49455;52.252;9.124;2022-08-03T06:56:42;99499.03;;;24.13
49154;BMP280;49455;52.252;9.124;2022-08-03T07:01:42;99502.94;;;24.30
49154;BMP280;49455;52.252;9.124;2022-08-03T07:06:43;99506.69;;;24.50
49154;BMP280;49455;52.252;9.124;2022-08-03T07:11:43;99512.50;;;24.61
49154;BMP280;49455;52.252;9.124;2022-08-03T07:16:44;99513.34;;;24.63
49154;BMP280;49455;52.252;9.124;2022-08-03T07:21:44;99515.66;;;24.73
49154;BMP280;49455;52.252;9.124;2022-08-03T07:26:45;99514.22;;;24.90
49154;BMP280;49455;52.252;9.124;2022-08-03T07:31:45;99522.06;;;25.19
49154;BMP280;49455;52.252;9.124;2022-08-03T07:36:45;99518.75;;;25.38
49154;BMP280;49455;52.252;9.124;2022-08-03T07:41:46;99525.38;;;25.25
49154;BMP280;49455;52.252;9.124;2022-08-03T07:46:47;99527.59;;;25.37
49154;BMP280;49455;52.252;9.124;2022-08-03T07:51:47;99522.91;;;25.45
49154;BMP280;49455;52.252;9.124;2022-08-03T07:56:47;99513.06;;;25.74
49154;BMP280;49455;52.252;9.124;2022-08-03T08:01:48;99521.81;;;25.76
49154;BMP280;49455;52.252;9.124;2022-08-03T08:06:48;99524.13;;;26.08
49154;BMP280;49455;52.252;9.124;2022-08-03T08:11:49;99524.44;;;26.00
49154;BMP280;49455;52.252;9.124;2022-08-03T08:16:49;99522.31;;;26.10
49154;BMP280;49455;52.252;9.124;2022-08-03T08:21:50;99524.81;;;26.14
49154;BMP280;49455;52.252;9.124;2022-08-03T08:26:50;99524.66;;;26.41
49154;BMP280;49455;52.252;9.124;2022-08-03T08:31:50;99524.22;;;26.73
49154;BMP280;49455;52.252;9.124;2022-08-03T08:36:51;99533.41;;;26.64
49154;BMP280;49455;52.252;9.124;2022-08-03T08:41:51;99521.19;;;26.83
49154;BMP280;49455;52.252;9.124;2022-08-03T08:46:54;99526.06;;;27.14
49154;BMP280;49455;52.252;9.124;2022-08-03T08:51:56;99520.91;;;27.31
49154;BMP280;49455;52.252;9.124;2022-08-03T08:57:02;99515.91;;;27.65
49154;BMP280;49455;52.252;9.124;2022-08-03T09:02:02;99518.44;;;27.87
49154;BMP280;49455;52.252;9.124;2022-08-03T09:07:03;99520.38;;;28.22
49154;BMP280;49455;52.252;9.124;2022-08-03T09:12:04;99529.06;;;28.07
49154;BMP280;49455;52.252;9.124;2022-08-03T09:17:04;99515.56;;;28.29
49154;BMP280;49455;52.252;9.124;2022-08-03T09:22:12;99517.13;;;28.53
49154;BMP280;49455;52.252;9.124;2022-08-03T09:27:13;99517.00;;;28.56
49154;BMP280;49455;52.252;9.124;2022-08-03T09:32:14;99511.13;;;28.50
49154;BMP280;49455;52.252;9.124;2022-08-03T09:37:16;99500.16;;;28.74
49154;BMP280;49455;52.252;9.124;2022-08-03T09:42:18;99507.50;;;29.04
49154;BMP280;49455;52.252;9.124;2022-08-03T09:47:29;99500.50;;;28.85
49154;BMP280;49455;52.252;9.124;2022-08-03T09:52:39;99504.00;;;29.03
49154;BMP280;49455;52.252;9.124;2022-08-03T09:57:40;99503.31;;;29.17
49154;BMP280;49455;52.252;9.124;2022-08-03T10:02:42;99487.28;;;29.18
49154;BMP280;49455;52.252;9.124;2022-08-03T10:07:45;99491.53;;;29.39
49154;BMP280;49455;52.252;9.124;2022-08-03T10:12:46;99493.88;;;29.45
49154;BMP280;49455;52.252;9.124;2022-08-03T10:17:46;99500.16;;;29.60
49154;BMP280;49455;52.252;9.124;2022-08-03T10:22:47;99494.66;;;29.80
49154;BMP280;49455;52.252;9.124;2022-08-03T10:27:50;99483.47;;;30.22
49154;BMP280;49455;52.252;9.124;2022-08-03T10:32:54;99486.31;;;30.03
49154;BMP280;49455;52.252;9.124;2022-08-03T10:38:01;99481.84;;;30.35
49154;BMP280;49455;52.252;9.124;2022-08-03T10:43:06;99473.31;;;30.44
49154;BMP280;49455;52.252;9.124;2022-08-03T10:48:07;99468.44;;;30.37
49154;BMP280;49455;52.252;9.124;2022-08-03T10:53:08;99472.34;;;30.14
49154;BMP280;49455;52.252;9.124;2022-08-03T10:58:09;99470.72;;;30.74
49154;BMP280;49455;52.252;9.124;2022-08-03T11:03:11;99471.19;;;30.96
49154;BMP280;49455;52.252;9.124;2022-08-03T11:08:26;99465.25;;;31.35
49154;BMP280;49455;52.252;9.124;2022-08-03T11:13:29;99465.44;;;31.33
49154;BMP280;49455;52.252;9.124;2022-08-03T11:18:29;99453.84;;;31.34
49154;BMP280;49455;52.252;9.124;2022-08-03T11:23:46;99451.91;;;30.91
49154;BMP280;49455;52.252;9.124;2022-08-03T11:28:47;99460.34;;;31.57
49154;BMP280;49455;52.252;9.124;2022-08-03T11:34:03;99459.69;;;31.54
49154;BMP280;49455;52.252;9.124;2022-08-03T11:39:16;99448.94;;;31.69
49154;BMP280;49455;52.252;9.124;2022-08-03T11:44:39;99445.94;;;31.89
49154;BMP280;49455;52.252;9.124;2022-08-03T11:49:39;99452.97;;;31.90
49154;BMP280;49455;52.252;9.124;2022-08-03T11:54:40;99443.91;;;32.33
49154;BMP280;49455;52.252;9.124;2022-08-03T11:59:40;99447.25;;;32.23
49154;BMP280;49455;52.252;9.124;2022-08-03T12:04:54;99444.94;;;32.58
49154;BMP280;49455;52.252;9.124;2022-08-03T12:10:08;99447.66;;;32.45
49154;BMP280;49455;52.252;9.124;2022-08-03T12:15:09;99447.19;;;32.25
49154;BMP280;49455;52.252;9.124;2022-08-03T12:20:13;99455.13;;;32.66
49154;BMP280;49455;52.252;9.124;2022-08-03T12:25:24;99427.69;;;32.76
49154;BMP280;49455;52.252;9.124;2022-08-03T12:30:25;99429.72;;;32.99
49154;BMP280;49455;52.252;9.124;2022-08-03T12:35:25;99433.13;;;32.89
49154;BMP280;49455;52.252;9.124;2022-08-03T12:40:26;99434.75;;;33.42
49154;BMP280;49455;52.252;9.124;2022-08-03T12:45:29;99429.41;;;33.29
49154;BMP280;49455;52.252;9.124;2022-08-03T12:50:32;99429.56;;;33.65
49154;BMP280;49455;52.252;9.124;2022-08-03T12:55:33;99428.97;;;33.35
49154;BMP280;49455;52.252;9.124;2022-08-03T13:00:34;99426.91;;;33.77
49154;BMP280;49455;52.252;9.124;2022-08-03T13:05:47;99412.09;;;33.84
49154;BMP280;49455;52.252;9.124;2022-08-03T13:10:47;99417.63;;;33.69
49154;BMP280;49455;52.252;9.124;2022-08-03T13:15:48;99422.28;;;34.04
49154;BMP280;49455;52.252;9.124;2022-08-03T13:20:48;99421.41;;;34.03
49154;BMP280;49455;52.252;9.124;2022-08-03T13:25:49;99410.25;;;34.09
49154;BMP280;49455;52.252;9.124;2022-08-03T13:30:49;99414.41;;;34.38
49154;BMP280;49455;52.252;9.124;2022-08-03T13:35:49;99407.16;;;34.03
49154;BMP280;49455;52.252;9.124;2022-08-03T13:40:51;99401.75;;;34.15
49154;BMP280;49455;52.252;9.124;2022-08-03T13:45:52;99403.94;;;34.10
49154;BMP280;49455;52.252;9.124;2022-08-03T13:50:52;99398.09;;;34.41
49154;BMP280;49455;52.252;9.124;2022-08-03T13:55:52;99391.03;;;34.63
49154;BMP280;49455;52.252;9.124;2022-08-03T14:00:53;99380.00;;;34.67
49154;BMP280;49455;52.252;9.124;2022-08-03T14:05:53;99383.09;;;34.61
49154;BMP280;49455;52.252;9.124;2022-08-03T14:10:54;99384.47;;;34.31
49154;BMP280;49455;52.252;9.124;2022-08-03T14:15:55;99376.38;;;34.43
49154;BMP280;49455;52.252;9.124;2022-08-03T14:20:56;99370.41;;;34.40
49154;BMP280;49455;52.252;9.124;2022-08-03T14:25:57;99373.09;;;34.63
49154;BMP280;49455;52.252;9.124;2022-08-03T14:30:58;99366.56;;;34.67
49154;BMP280;49455;52.252;9.124;2022-08-03T14:35:58;99367.34;;;34.44
49154;BMP280;49455;52.252;9.124;2022-08-03T14:40:59;99355.38;;;34.38
49154;BMP280;49455;52.252;9.124;2022-08-03T14:45:59;99360.16;;;34.80
49154;BMP280;49455;52.252;9.124;2022-08-03T14:51:00;99356.66;;;34.91
49154;BMP280;49455;52.252;9.124;2022-08-03T14:56:00;99354.38;;;34.74
49154;BMP280;49455;52.252;9.124;2022-08-03T15:01:01;99350.31;;;34.69
49154;BMP280;49455;52.252;9.124;2022-08-03T15:06:01;99348.94;;;34.40
49154;BMP280;49455;52.252;9.124;2022-08-03T15:11:02;99340.28;;;34.47
49154;BMP280;49455;52.252;9.124;2022-08-03T15:16:03;99345.16;;;34.66
49154;BMP280;49455;52.252;9.124;2022-08-03T15:21:03;99341.84;;;34.62
49154;BMP280;49455;52.252;9.124;2022-08-03T15:26:04;99334.19;;;34.92
49154;BMP280;49455;52.252;9.124;2022-08-03T15:31:04;99328.50;;;34.73
49154;BMP280;49455;52.252;9.124;2022-08-03T15:36:05;99330.44;;;34.00
49154;BMP280;49455;52.252;9.124;2022-08-03T15:41:06;99323.22;;;33.78
49154;BMP280;49455;52.252;9.124;2022-08-03T15:46:06;99326.13;;;33.75
49154;BMP280;49455;52.252;9.124;2022-08-03T15:51:07;99334.44;;;33.95
49154;BMP280;49455;52.252;9.124;2022-08-03T15:56:08;99331.75;;;33.58
49154;BMP280;49455;52.252;9.124;2022-08-03T16:01:08;99324.44;;;33.23
49154;BMP280;49455;52.252;9.124;2022-08-03T16:06:08;99321.81;;;33.48
49154;BMP280;49455;52.252;9.124;2022-08-03T16:11:09;99320.94;;;33.96
49154;BMP280;49455;52.252;9.124;2022-08-03T16:16:10;99331.66;;;33.96
49154;BMP280;49455;52.252;9.124;2022-08-03T16:21:10;99317.13;;;33.99
49154;BMP280;49455;52.252;9.124;2022-08-03T16:26:11;99321.81;;;34.32
49154;BMP280;49455;52.252;9.124;2022-08-03T16:31:11;99321.94;;;33.58
49154;BMP280;49455;52.252;9.124;2022-08-03T16:36:12;99320.63;;;33.51
49154;BMP280;49455;52.252;9.124;2022-08-03T16:41:12;99321.47;;;33.77
49154;BMP280;49455;52.252;9.124;2022-08-03T16:46:13;99314.06;;;33.55
49154;BMP280;49455;52.252;9.124;2022-08-03T16:51:13;99315.75;;;32.95
49154;BMP280;49455;52.252;9.124;2022-08-03T16:56:14;99316.22;;;33.38
49154;BMP280;49455;52.252;9.124;2022-08-03T17:01:14;99319.03;;;33.49
49154;BMP280;49455;52.252;9.124;2022-08-03T17:06:15;99312.16;;;33.70
49154;BMP280;49455;52.252;9.124;2022-08-03T17:11:16;99309.34;;;33.22
49154;BMP280;49455;52.252;9.124;2022-08-03T17:16:17;99313.34;;;33.53
49154;BMP280;49455;52.252;9.124;2022-08-03T17:21:22;99314.06;;;33.19
49154;BMP280;49455;52.252;9.124;2022-08-03T17:26:24;99314.75;;;32.96
49154;BMP280;49455;52.252;9.124;2022-08-03T17:31:25;99314.84;;;32.82
49154;BMP280;49455;52.252;9.124;2022-08-03T17:36:26;99311.56;;;32.91
49154;BMP280;49455;52.252;9.124;2022-08-03T17:41:27;99312.09;;;32.84
49154;BMP280;49455;52.252;9.124;2022-08-03T17:46:36;99309.25;;;32.73
49154;BMP280;49455;52.252;9.124;2022-08-03T17:51:44;99313.97;;;32.43
49154;BMP280;49455;52.252;9.124;2022-08-03T18:06:52;99330.34;;;32.11
49154;BMP280;49455;52.252;9.124;2022-08-03T18:11:57;99320.88;;;31.66
49154;BMP280;49455;52.252;9.124;2022-08-03T18:17:00;99319.59;;;31.30
49154;BMP280;49455;52.252;9.124;2022-08-03T18:22:04;99322.75;;;30.94
49154;BMP280;49455;52.252;9.124;2022-08-03T18:27:04;99327.09;;;30.66
49154;BMP280;49455;52.252;9.124;2022-08-03T18:32:33;99322.44;;;30.40
49154;BMP280;49455;52.252;9.124;2022-08-03T18:37:35;99328.13;;;30.04
49154;BMP280;49455;52.252;9.124;2022-08-03T18:42:35;99328.84;;;29.43
49154;BMP280;49455;52.252;9.124;2022-08-03T18:58:14;99338.91;;;28.01
49154;BMP280;49455;52.252;9.124;2022-08-03T19:03:23;99342.69;;;27.60
49154;BMP280;49455;52.252;9.124;2022-08-03T19:08:46;99346.31;;;27.39
49154;BMP280;49455;52.252;9.124;2022-08-03T19:13:49;99348.84;;;27.22
49154;BMP280;49455;52.252;9.124;2022-08-03T19:18:50;99352.91;;;27.11
49154;BMP280;49455;52.252;9.124;2022-08-03T19:23:54;99359.53;;;26.81
49154;BMP280;49455;52.252;9.124;2022-08-03T19:28:55;99363.78;;;26.43
49154;BMP280;49455;52.252;9.124;2022-08-03T19:33:58;99366.75;;;26.36
49154;BMP280;49455;52.252;9.124;2022-08-03T19:38:58;99367.34;;;26.21
49154;BMP280;49455;52.252;9.124;2022-08-03T19:44:04;99362.91;;;26.00
49154;BMP280;49455;52.252;9.124;2022-08-03T19:49:13;99375.00;;;25.84
49154;BMP280;49455;52.252;9.124;2022-08-03T19:54:14;99377.44;;;25.89
49154;BMP280;49455;52.252;9.124;2022-08-03T19:59:14;99383.38;;;25.73
49154;BMP280;49455;52.252;9.124;2022-08-03T20:04:17;99382.25;;;25.57
49154;BMP280;49455;52.252;9.124;2022-08-03T20:09:19;99384.31;;;25.49
49154;BMP280;49455;52.252;9.124;2022-08-03T20:14:22;99384.84;;;25.10
49154;BMP280;49455;52.252;9.124;2022-08-03T20:19:23;99376.97;;;25.09
49154;BMP280;49455;52.252;9.124;2022-08-03T20:24:33;99376.53;;;24.96
49154;BMP280;49455;52.252;9.124;2022-08-03T20:29:40;99378.75;;;24.83
49154;BMP280;49455;52.252;9.124;2022-08-03T20:34:43;99378.75;;;24.84
49154;BMP280;49455;52.252;9.124;2022-08-03T20:39:44;99386.59;;;24.60
49154;BMP280;49455;52.252;9.124;2022-08-03T20:44:44;99393.59;;;24.61
49154;BMP280;49455;52.252;9.124;2022-08-03T20:49:48;99388.59;;;24.54
49154;BMP280;49455;52.252;9.124;2022-08-03T20:54:50;99390.78;;;24.40
49154;BMP280;49455;52.252;9.124;2022-08-03T20:59:50;99393.94;;;24.25
49154;BMP280;49455;52.252;9.124;2022-08-03T21:04:51;99388.66;;;24.25
49154;BMP280;49455;52.252;9.124;2022-08-03T21:09:55;99395.28;;;24.09
49154;BMP280;49455;52.252;9.124;2022-08-03T21:15:03;99386.41;;;24.12
49154;BMP280;49455;52.252;9.124;2022-08-03T21:20:05;99389.06;;;24.12
49154;BMP280;49455;52.252;9.124;2022-08-03T21:25:07;99392.00;;;24.03
49154;BMP280;49455;52.252;9.124;2022-08-03T21:30:09;99384.06;;;24.03
49154;BMP280;49455;52.252;9.124;2022-08-03T21:35:11;99393.28;;;23.90
49154;BMP280;49455;52.252;9.124;2022-08-03T21:40:14;99384.72;;;23.82
49154;BMP280;49455;52.252;9.124;2022-08-03T21:45:14;99382.38;;;23.72
49154;BMP280;49455;52.252;9.124;2022-08-03T21:50:15;99375.50;;;23.68
49154;BMP280;49455;52.252;9.124;2022-08-03T21:55:16;99373.41;;;23.49
49154;BMP280;49455;52.252;9.124;2022-08-03T22:00:18;99376.31;;;23.70
49154;BMP280;49455;52.252;9.124;2022-08-03T22:05:19;99379.13;;;23.64
49154;BMP280;49455;52.252;9.124;2022-08-03T22:10:20;99378.63;;;23.52
49154;BMP280;49455;52.252;9.124;2022-08-03T22:15:21;99385.88;;;23.42
49154;BMP280;49455;52.252;9.124;2022-08-03T22:20:21;99382.97;;;23.53
49154;BMP280;49455;52.252;9.124;2022-08-03T22:25:28;99385.81;;;23.45
49154;BMP280;49455;52.252;9.124;2022-08-03T22:30:29;99397.91;;;23.22
49154;BMP280;49455;52.252;9.124;2022-08-03T22:35:31;99398.84;;;23.20
49154;BMP280;49455;52.252;9.124;2022-08-03T22:40:33;99396.22;;;23.20
49154;BMP280;49455;52.252;9.124;2022-08-03T22:45:35;99393.75;;;23.14
49154;BMP280;49455;52.252;9.124;2022-08-03T22:50:36;99399.50;;;22.96
49154;BMP280;49455;52.252;9.124;2022-08-03T22:55:36;99402.72;;;22.74
49154;BMP280;49455;52.252;9.124;2022-08-03T23:00:51;99403.53;;;22.76
49154;BMP280;49455;52.252;9.124;2022-08-03T23:05:53;99411.44;;;22.76
49154;BMP280;49455;52.252;9.124;2022-08-03T23:10:57;99410.84;;;22.65
49154;BMP280;49455;52.252;9.124;2022-08-03T23:16:03;99418.13;;;22.56
49154;BMP280;49455;52.252;9.124;2022-08-03T23:21:05;99410.56;;;22.43
49154;BMP280;49455;52.252;9.124;2022-08-03T23:26:05;99412.91;;;22.18
49154;BMP280;49455;52.252;9.124;2022-08-03T23:31:07;99414.56;;;22.22
49154;BMP280;49455;52.252;9.124;2022-08-03T23:36:07;99403.59;;;22.03
49154;BMP280;49455;52.252;9.124;2022-08-03T23:41:09;99401.91;;;21.99
49154;BMP280;49455;52.252;9.124;2022-08-03T23:46:09;99396.56;;;22.03
49154;BMP280;49455;52.252;9.124;2022-08-03T23:56:31;99390.13;;;21.77
